createdAt,value
2022-07-31T00:03:12.644Z,82.21
2022-07-31T00:08:15.847Z,82.26
2022-07-31T00:13:18.559Z,82.08
2022-07-31T00:18:41.439Z,81.68
2022-07-31T00:23:44.680Z,81.56
2022-07-31T00:28:48.303Z,81.39
2022-07-31T00:33:51.161Z,81.14
2022-07-31T00:38:53.998Z,81.42
2022-07-31T00:43:57.270Z,81.06
2022-07-31T00:49:00.283Z,80.87
2022-07-31T00:54:03.183Z,80.23
2022-07-31T00:59:06.202Z,79.48
2022-07-31T01:04:08.986Z,78.93
2022-07-31T01:09:18.599Z,78.60
2022-07-31T01:14:25.772Z,78.60
2022-07-31T01:19:42.114Z,77.79
2022-07-31T01:25:23.787Z,77.40
2022-07-31T01:31:25.986Z,77.37
2022-07-31T01:36:35.262Z,77.35
2022-07-31T01:41:46.258Z,77.24
2022-07-31T01:46:50.001Z,77.29
2022-07-31T01:51:53.571Z,77.49
2022-07-31T01:56:59.678Z,77.56
2022-07-31T02:02:04.928Z,77.32
2022-07-31T02:07:09.965Z,77.15
2022-07-31T02:12:14.453Z,77.17
2022-07-31T02:17:22.582Z,76.80
2022-07-31T02:22:26.150Z,76.89
2022-07-31T02:27:53.999Z,76.75
2022-07-31T02:32:54.687Z,77.08
2022-07-31T02:37:58.285Z,76.75
2022-07-31T02:43:01.276Z,77.17
2022-07-31T02:48:06.450Z,76.54
2022-07-31T02:53:09.554Z,76.70
2022-07-31T02:58:13.075Z,76.78
2022-07-31T03:03:15.890Z,76.73
2022-07-31T03:08:18.811Z,77.13
2022-07-31T03:13:24.842Z,76.89
2022-07-31T03:18:28.926Z,76.77
2022-07-31T03:23:36.579Z,77.17
2022-07-31T03:28:40.006Z,77.12
2022-07-31T03:33:42.917Z,77.15
2022-07-31T03:38:50.230Z,77.09
2022-07-31T03:43:54.360Z,76.60
2022-07-31T03:48:57.545Z,77.08
2022-07-31T03:54:00.424Z,76.82
2022-07-31T03:59:04.389Z,76.45
2022-07-31T04:04:07.569Z,76.59
2022-07-31T04:09:18.550Z,76.38
2022-07-31T04:14:22.248Z,76.83
2022-07-31T04:19:25.165Z,77.00
2022-07-31T04:24:28.289Z,77.00
2022-07-31T04:29:31.127Z,76.83
2022-07-31T04:34:34.028Z,77.02
2022-07-31T04:39:37.069Z,77.18
2022-07-31T04:44:40.026Z,77.77
2022-07-31T04:49:42.881Z,78.29
2022-07-31T04:54:45.678Z,78.88
2022-07-31T05:00:00.541Z,79.84
2022-07-31T05:05:04.924Z,81.45
2022-07-31T05:10:08.367Z,83.07
2022-07-31T05:15:11.817Z,84.52
2022-07-31T05:20:14.645Z,85.55
2022-07-31T05:25:17.559Z,87.01
2022-07-31T05:30:29.872Z,87.95
2022-07-31T05:35:33.550Z,89.20
2022-07-31T05:40:36.293Z,89.72
2022-07-31T05:45:39.657Z,90.86
2022-07-31T05:50:47.408Z,91.50
2022-07-31T05:55:51.492Z,92.19
2022-07-31T06:00:55.104Z,92.77
2022-07-31T06:05:57.931Z,93.53
2022-07-31T06:11:00.770Z,94.03
2022-07-31T06:16:03.784Z,94.66
2022-07-31T06:21:06.664Z,95.21
2022-07-31T06:26:09.581Z,95.69
2022-07-31T06:31:20.995Z,96.00
2022-07-31T06:36:23.818Z,97.01
2022-07-31T06:41:44.963Z,97.09
2022-07-31T06:46:49.626Z,97.36
2022-07-31T06:51:53.051Z,97.73
2022-07-31T06:56:55.926Z,98.05
2022-07-31T07:01:59.206Z,97.74
2022-07-31T07:07:02.091Z,97.76
2022-07-31T07:12:05.624Z,98.12
2022-07-31T07:17:08.610Z,97.90
2022-07-31T07:22:11.493Z,98.30
2022-07-31T07:27:14.233Z,98.86
2022-07-31T07:32:17.880Z,99.39
2022-07-31T07:37:20.622Z,98.93
2022-07-31T07:42:23.626Z,97.65
2022-07-31T07:47:26.397Z,96.74
2022-07-31T07:52:49.424Z,93.73
2022-07-31T07:57:52.871Z,92.13
2022-07-31T08:03:02.798Z,91.33
2022-07-31T08:08:18.755Z,90.57
2022-07-31T08:13:21.617Z,89.41
2022-07-31T08:18:28.459Z,88.12
2022-07-31T08:23:32.050Z,87.74
2022-07-31T08:28:36.208Z,86.93
2022-07-31T08:33:39.652Z,86.35
2022-07-31T08:38:42.579Z,84.96
2022-07-31T08:44:00.397Z,83.44
2022-07-31T08:49:09.912Z,82.68
2022-07-31T08:54:16.537Z,81.97
2022-07-31T08:59:20.119Z,81.48
2022-07-31T09:04:26.421Z,79.92
2022-07-31T09:09:50.278Z,78.97
2022-07-31T09:14:53.732Z,78.52
2022-07-31T09:19:56.653Z,76.92
2022-07-31T09:25:21.938Z,76.27
2022-07-31T09:30:24.826Z,74.44
2022-07-31T09:35:28.342Z,74.17
2022-07-31T09:40:39.962Z,72.32
2022-07-31T09:46:00.684Z,70.58
2022-07-31T09:51:07.419Z,70.04
2022-07-31T09:56:12.663Z,69.15
2022-07-31T10:01:16.226Z,69.39
2022-07-31T10:06:21.280Z,69.43
2022-07-31T10:11:25.826Z,69.16
2022-07-31T10:16:35.590Z,70.54
2022-07-31T10:21:42.572Z,70.31
2022-07-31T10:27:07.891Z,70.22
2022-07-31T10:32:09.578Z,69.45
2022-07-31T10:37:20.461Z,68.94
2022-07-31T10:42:46.216Z,69.02
2022-07-31T10:47:57.590Z,67.71
2022-07-31T10:53:16.111Z,66.72
2022-07-31T10:58:19.893Z,66.13
2022-07-31T11:03:23.121Z,65.42
2022-07-31T11:08:26.719Z,65.29
2022-07-31T11:13:33.672Z,65.46
2022-07-31T11:18:40.376Z,65.36
2022-07-31T11:23:55.855Z,65.69
2022-07-31T11:30:01.550Z,65.60
2022-07-31T11:34:28.305Z,66.31
2022-07-31T11:39:36.537Z,66.39
2022-07-31T11:44:40.914Z,66.43
2022-07-31T11:49:48.824Z,66.67
2022-07-31T11:55:08.166Z,66.99
2022-07-31T12:00:26.872Z,66.69
2022-07-31T12:05:45.306Z,66.09
2022-07-31T12:10:51.474Z,65.32
2022-07-31T12:15:59.784Z,64.66
2022-07-31T12:21:05.158Z,65.27
2022-07-31T12:26:10.644Z,65.79
2022-07-31T12:31:13.704Z,66.14
2022-07-31T12:36:17.630Z,67.61
2022-07-31T12:41:20.421Z,68.11
2022-07-31T12:46:38.551Z,68.17
2022-07-31T12:51:46.056Z,67.99
2022-07-31T12:56:49.898Z,68.25
2022-07-31T13:01:52.787Z,68.29
2022-07-31T13:06:55.750Z,68.88
2022-07-31T13:11:58.747Z,70.22
2022-07-31T13:17:02.059Z,71.51
2022-07-31T13:22:05.131Z,71.63
2022-07-31T13:27:09.006Z,71.12
2022-07-31T13:32:11.880Z,71.07
2022-07-31T13:37:14.644Z,70.21
2022-07-31T13:42:17.957Z,69.83
2022-07-31T13:47:21.350Z,69.40
2022-07-31T13:52:24.120Z,68.20
2022-07-31T13:57:27.225Z,66.95
2022-07-31T14:02:30.200Z,66.72
2022-07-31T14:07:45.025Z,67.17
2022-07-31T14:12:50.595Z,66.55
2022-07-31T14:17:53.695Z,67.08
2022-07-31T14:22:56.491Z,68.67
2022-07-31T14:27:59.901Z,69.99
2022-07-31T14:33:04.875Z,71.68
2022-07-31T14:38:07.940Z,73.25
2022-07-31T14:43:11.668Z,74.63
2022-07-31T14:48:15.481Z,74.37
2022-07-31T14:53:19.119Z,73.24
2022-07-31T14:58:21.951Z,71.98
2022-07-31T15:03:24.809Z,71.55
2022-07-31T15:08:27.785Z,71.43
2022-07-31T15:13:30.527Z,70.01
2022-07-31T15:18:33.554Z,68.93
2022-07-31T15:23:37.352Z,67.39
2022-07-31T15:28:40.250Z,67.30
2022-07-31T15:33:43.447Z,65.71
2022-07-31T15:38:46.298Z,65.00
2022-07-31T15:43:49.740Z,65.66
2022-07-31T15:48:52.864Z,66.39
2022-07-31T15:53:55.814Z,66.68
2022-07-31T15:59:00.206Z,67.12
2022-07-31T16:04:03.386Z,67.90
2022-07-31T16:09:19.856Z,68.77
2022-07-31T16:14:22.648Z,68.58
2022-07-31T16:19:26.823Z,69.58
2022-07-31T16:24:31.175Z,69.64
2022-07-31T16:30:01.658Z,69.04
2022-07-31T16:35:01.027Z,69.65
2022-07-31T16:40:06.607Z,70.16
2022-07-31T16:45:10.441Z,70.81
2022-07-31T16:50:13.529Z,71.14
2022-07-31T16:55:16.220Z,71.91
2022-07-31T17:00:19.024Z,72.58
2022-07-31T17:05:21.839Z,72.61
2022-07-31T17:10:24.682Z,73.13
2022-07-31T17:15:29.872Z,73.82
2022-07-31T17:20:33.080Z,74.39
2022-07-31T17:25:36.324Z,74.42
2022-07-31T17:30:39.333Z,74.54
2022-07-31T17:35:42.171Z,74.68
2022-07-31T17:40:46.971Z,73.92
2022-07-31T17:45:59.769Z,74.83
2022-07-31T17:51:12.298Z,75.40
2022-07-31T17:56:16.626Z,75.84
2022-07-31T18:01:19.543Z,76.11
2022-07-31T18:06:22.474Z,76.42
2022-07-31T18:11:25.740Z,76.87
2022-07-31T18:16:28.587Z,77.38
2022-07-31T18:21:31.375Z,77.25
2022-07-31T18:26:35.461Z,77.44
2022-07-31T18:31:38.537Z,77.51
2022-07-31T18:36:41.614Z,77.93
2022-07-31T18:41:48.624Z,77.85
2022-07-31T18:46:53.134Z,78.28
2022-07-31T18:51:57.184Z,79.32
2022-07-31T18:57:00.955Z,79.52
2022-07-31T19:02:04.827Z,79.98
2022-07-31T19:07:08.962Z,80.71
2022-07-31T19:12:13.972Z,80.68
2022-07-31T19:17:21.388Z,80.84
2022-07-31T19:22:24.939Z,80.55
2022-07-31T19:27:47.122Z,80.64
2022-07-31T19:32:50.811Z,80.49
2022-07-31T19:38:02.938Z,80.43
2022-07-31T19:43:05.680Z,79.79
2022-07-31T19:48:09.142Z,79.64
2022-07-31T19:53:12.021Z,79.29
2022-07-31T19:58:17.332Z,79.39
2022-07-31T20:03:20.205Z,79.34
2022-07-31T20:08:23.845Z,79.04
2022-07-31T20:13:28.071Z,78.75
2022-07-31T20:18:31.136Z,78.15
2022-07-31T20:23:37.240Z,77.73
2022-07-31T20:28:40.579Z,77.10
2022-07-31T20:33:56.529Z,77.00
2022-07-31T20:39:00.798Z,75.17
2022-07-31T20:44:03.861Z,73.90
2022-07-31T20:49:06.627Z,73.88
2022-07-31T20:54:09.499Z,73.10
2022-07-31T20:59:12.460Z,73.67
2022-07-31T21:04:17.805Z,74.41
2022-07-31T21:09:20.673Z,75.08
2022-07-31T21:14:23.501Z,75.28
2022-07-31T21:19:26.727Z,75.28
2022-07-31T21:24:29.864Z,75.67
2022-07-31T21:29:33.053Z,75.70
2022-07-31T21:34:37.064Z,75.63
2022-07-31T21:39:40.395Z,75.60
2022-07-31T21:44:45.150Z,74.73
2022-07-31T21:49:55.309Z,74.10
2022-07-31T21:55:05.475Z,73.07
2022-07-31T22:00:13.756Z,73.30
2022-07-31T22:05:35.579Z,73.51
2022-07-31T22:10:38.319Z,73.31
2022-07-31T22:15:51.536Z,73.21
2022-07-31T22:21:08.719Z,71.84
2022-07-31T22:26:12.677Z,71.46
2022-07-31T22:31:16.020Z,70.59
2022-07-31T22:36:19.706Z,70.64
2022-07-31T22:41:22.481Z,70.86
2022-07-31T22:46:26.527Z,71.38
2022-07-31T22:51:29.455Z,71.77
2022-07-31T22:56:32.392Z,72.49
2022-07-31T23:01:35.150Z,71.22
2022-07-31T23:06:38.324Z,70.51
2022-07-31T23:11:41.096Z,70.36
2022-07-31T23:16:43.954Z,70.55
2022-07-31T23:21:46.918Z,70.86
2022-07-31T23:26:49.634Z,71.33
2022-07-31T23:31:52.538Z,71.49
2022-07-31T23:36:55.546Z,72.10
2022-07-31T23:42:17.318Z,72.21
2022-07-31T23:47:20.576Z,72.16
2022-07-31T23:52:25.225Z,72.12
2022-07-31T23:57:28.081Z,72.33
